• Join FlightAware (Why Join?)
  • Login
  • US Flag 
09:04PM EDT


 

Airport Tracker/Info


-or-


 

Live Flight TrackerFlight Track Log ✈ SWA315 ✈ 18-Apr-2013 ✈ KDEN - KIND

Flight Track Log - Related Links

Times and Time Zones

All times are in EDT time to prevent confusion due to time zone crossing. See the SWA315 flight status page for this flight to view local times or setup timezone preferences in your user account.

Time Position Orientation Groundspeed Altitude Reporting Facility
EDT Latitude Longitude Course Direction KTS MPH feet Rate Location/Type
12:40PM 39.9333 -104.6333 90° East 210 242 7,500  Level Denver TRACON
12:41PM 39.9500 -104.5547 75° East 268 308 9,600 1,200 Climbing Denver Center
12:42PM 39.9500 -104.4333 90° East 338 389 10,000 1,200 Climbing Denver TRACON
12:43PM 39.9319 -104.3136 101° East 342 394 12,200 2,700 Climbing Denver Center
12:44PM 39.9206 -104.1761 96° East 355 409 15,600 3,000 Climbing Denver Center
12:45PM 39.8667 -103.8682 90° East  Level FlightAware Approximate
12:45PM 39.9089 -104.0444 97° East 367 422 18,500  Level Denver Center
12:46PM 39.8967 -103.8972 96° East 378 435 21,600 2,580 Climbing Denver Center
12:47PM 39.8853 -103.7550 96° East 395 455 23,800 2,100 Climbing Denver Center
12:48PM 39.8981 -103.6081 83° East 402 463 26,000 1,980 Climbing Denver Center
12:49PM 39.9156 -103.4547 81° East 425 489 27,900 1,440 Climbing Denver Center
12:50PM 39.9339 -103.2947 81° East 441 507 29,000 1,140 Climbing Denver Center
12:51PM 39.9472 -103.1303 84° East 450 518 30,300 1,320 Climbing Denver Center
12:52PM 39.9589 -102.9606 85° East 464 534 31,800 1,440 Climbing Denver Center
12:53PM 39.9703 -102.7600 86° East 471 542 33,300 1,260 Climbing Denver Center
12:54PM 39.9822 -102.5831 85° East 480 552 34,500 1,020 Climbing Denver Center
12:55PM 39.9961 -102.4164 84° East 484 557 35,500 720 Climbing Denver Center
12:56PM 40.0072 -102.2167 86° East 492 566 36,000 240 Climbing Denver Center
12:57PM 40.0125 -102.0450 88° East 495 570 36,000  Level Denver Center
12:58PM 40.0233 -101.8778 85° East 487 560 36,000  Level Denver Center
12:59PM 40.0342 -101.6803 86° East 491 565 36,000  Level Denver Center
01:00PM 40.0439 -101.5136 86° East 482 555 36,000  Level Denver Center
01:01PM 40.0533 -101.3158 86° East 489 563 36,000  Level Denver Center
01:02PM 40.0617 -101.1464 86° East 492 566 36,000  Level Denver Center
01:03PM 40.0719 -100.9522 86° East 484 557 36,000  Level Denver Center
01:04PM 40.0794 -100.7833 87° East 487 560 36,000  Level Denver Center
01:05PM 40.0881 -100.5856 87° East 491 565 36,000 120 Level Denver Center
01:06PM 40.0958 -100.4167 87° East 490 564 36,300 480 Climbing Denver Center
01:07PM 40.1036 -100.2211 87° East 488 562 37,000 300 Climbing Denver Center
01:08PM 40.1100 -100.0558 87° East 481 554 37,000  Level Denver Center
01:09PM 40.1178 -99.8739 87° East 481 554 37,000  Level Denver Center
01:11PM 40.1242 -99.6992 87° East 482 555 37,000  Level Denver Center
01:12PM 40.1306 -99.5247 87° East 483 556 37,000  Level Denver Center
01:13PM 40.1367 -99.3489 87° East 485 558 37,000  Level Denver Center
01:14PM 40.1436 -99.1375 87° East 488 562 37,000  Level Denver Center
01:15PM 40.1486 -98.9583 88° East 493 567 37,000  Level Denver Center
01:15PM 40.1536 -98.8189 87° East 489 563 37,000  Level Minneapolis Center
01:17PM 40.1589 -98.6069 88° East 488 562 37,000  Level Minneapolis Center
01:18PM 40.1636 -98.4300 88° East 488 562 37,000  Level Minneapolis Center
01:19PM 40.1697 -98.2200 88° East 485 558 37,000  Level Minneapolis Center
01:20PM 40.1731 -98.0436 89° East 485 558 37,000  Level Minneapolis Center
01:21PM 40.1772 -97.8644 88° East 491 565 37,000  Level Minneapolis Center
01:22PM 40.1819 -97.6878 88° East 489 563 37,000  Level Minneapolis Center
01:23PM 40.1842 -97.5150 89° East 481 554 37,000  Level Minneapolis Center
01:24PM 40.1867 -97.3417 89° East 478 550 37,000  Level Minneapolis Center
01:25PM 40.1892 -97.1603 89° East 482 555 37,000  Level Minneapolis Center
01:26PM 40.1931 -96.9869 88° East 481 554 37,000  Level Minneapolis Center
01:27PM 40.1947 -96.7769 89° East 483 556 37,000  Level Minneapolis Center
01:28PM 40.1967 -96.6003 89° East 486 559 37,000  Level Minneapolis Center
01:29PM 40.1986 -96.4236 89° East 488 562 37,000  Level Minneapolis Center
01:30PM 40.2000 -96.2483 89° East 486 559 37,000  Level Minneapolis Center
01:31PM 40.1997 -96.0742 90° East 483 556 37,000  Level Minneapolis Center
01:32PM 40.1989 -95.9006 90° East 481 554 37,000  Level Minneapolis Center
01:33PM 40.1981 -95.6947 90° East 476 548 37,000  Level Minneapolis Center
01:34PM 40.1958 -95.5256 91° East 470 541 37,000  Level Minneapolis Center
01:35PM 40.1950 -95.3553 90° East 470 541 37,000  Level Minneapolis Center
01:36PM 40.1944 -95.1836 90° East 473 544 37,000  Level Minneapolis Center
01:37PM 40.1908 -95.0122 92° East 474 545 37,000  Level Minneapolis Center
01:38PM 40.1903 -94.8378 90° East 478 550 37,000  Level Minneapolis Center
01:39PM 40.1869 -94.6292 91° East 480 552 37,000  Level Minneapolis Center
01:40PM 40.1847 -94.4694 91° East 477 549 37,000  Level Minneapolis Center
01:41PM 40.1811 -94.3517 92° East 474 545 37,000  Level Kansas City Center
01:42PM 40.1767 -94.1611 92° East 471 542 37,000  Level Kansas City Center
01:43PM 40.1711 -93.9925 92° East 477 549 37,000  Level Kansas City Center
01:44PM 40.1661 -93.8219 92° East 475 547 37,000  Level Kansas City Center
01:45PM 40.1639 -93.6542 91° East 469 540 37,000  Level Kansas City Center
01:46PM 40.1586 -93.4853 92° East 469 540 37,000  Level Kansas City Center
01:47PM 40.1528 -93.2811 92° East 472 543 37,000  Level Kansas City Center
01:48PM 40.1531 -93.1147 90° East 468 539 37,000  Level Kansas City Center
01:49PM 40.1442 -92.9289 94° East 477 549 37,000  Level Kansas City Center
01:50PM 40.1386 -92.7647 92° East 473 544 37,000  Level Kansas City Center
01:51PM 40.1336 -92.6017 92° East 470 541 37,000  Level Kansas City Center
01:52PM 40.1186 -92.4178 96° East 457 526 37,000  Level Kansas City Center
01:54PM 40.1053 -92.2517 96° East 460 529 37,000  Level Kansas City Center
01:55PM 40.0892 -92.0875 97° East 463 533 37,000  Level Kansas City Center
01:56PM 40.0733 -91.9217 97° East 463 533 37,000  Level Kansas City Center
01:57PM 40.0578 -91.7553 97° East 466 536 37,000  Level Kansas City Center
01:58PM 40.0381 -91.5553 97° East 467 537 37,000  Level Kansas City Center
01:59PM 40.0208 -91.3903 98° East 464 534 37,000  Level Kansas City Center
02:00PM 40.0053 -91.2222 97° East 468 539 37,000  Level Kansas City Center
02:01PM 39.9889 -91.0547 97° East 469 540 37,000 -420 Level Kansas City Center
02:02PM 39.9703 -90.8808 98° East 467 537 36,200 -900 Descending Kansas City Center
02:03PM 39.9531 -90.7119 98° East 470 541 35,200 -600 Descending Kansas City Center
02:04PM 39.9311 -90.5075 98° East 476 548 35,000 -120 Descending Kansas City Center
02:05PM 39.9128 -90.3392 98° East 475 547 35,000  Level Kansas City Center
02:06PM 39.8781 -90.1814 106° East 464 534 35,000  Level Kansas City Center
02:07PM 39.8092 -90.0553 125° Southeast 437 503 35,000  Level Kansas City Center
02:08PM 39.7394 -89.9286 126° Southeast 433 498 35,000 -300 Level Kansas City Center
02:09PM 39.6642 -89.7908 125° Southeast 435 501 34,400 -840 Descending Kansas City Center
02:10PM 39.5903 -89.6589 126° Southeast 444 511 33,400 -720 Descending Kansas City Center
02:11PM 39.5169 -89.5281 126° Southeast 448 516 33,000 -240 Descending Kansas City Center
02:12PM 39.4447 -89.3975 126° Southeast 446 513 33,000 -540 Level Kansas City Center
02:13PM 39.3706 -89.2700 127° Southeast 444 511 32,000 -960 Descending Kansas City Center
02:14PM 39.2967 -89.1381 126° Southeast 449 517 31,100 -1,080 Descending Kansas City Center
02:15PM 39.2069 -88.9803 126° Southeast 453 521 29,900 -1,140 Descending Kansas City Center
02:16PM 39.1356 -88.8531 126° Southeast 443 510 28,900 -1,020 Descending Kansas City Center
02:17PM 39.0625 -88.7256 126° Southeast 441 507 27,900 -1,020 Descending Kansas City Center
02:18PM 38.9881 -88.5939 126° Southeast 435 501 26,800 -1,080 Descending Kansas City Center
02:19PM 38.9314 -88.4594 118° Southeast 439 505 25,800 -1,020 Descending Kansas City Center
02:20PM 38.9344 -88.3614 88° East 451 519 25,200 -960 Descending Indianapolis Center
02:21PM 38.9567 -88.1975 80° East 463 533 24,200 -600 Descending Indianapolis Center
02:22PM 38.9758 -88.0397 81° East 452 520 24,000 -120 Descending Indianapolis Center
02:23PM 38.9953 -87.8797 81° East 450 518 24,000 -360 Level Indianapolis Center
02:24PM 39.0225 -87.6942 79° East 443 510 23,300 -840 Descending Indianapolis Center
02:25PM 39.0781 -87.5500 64° Northeast 446 513 22,300 -1,020 Descending Indianapolis Center
02:26PM 39.1311 -87.4108 64° Northeast 436 502 21,300 -1,020 Descending Indianapolis Center
02:27PM 39.1842 -87.2706 64° Northeast 433 498 20,300 -1,020 Descending Indianapolis Center
02:28PM 39.2364 -87.1336 64° Northeast 429 494 19,300 -1,020 Descending Indianapolis Center
02:29PM 39.2889 -87.0003 63° Northeast 422 486 18,300 -1,260 Descending Indianapolis Center
02:30PM 39.3439 -86.8700 61° Northeast 417 480 16,800 -1,860 Descending Indianapolis Center
02:31PM 39.4150 -86.7525 52° Northeast 413 475 14,600 -2,100 Descending Indianapolis Center
02:32PM 39.4839 -86.6333 53° Northeast 413 475 12,500 -2,100 Descending Indianapolis Center
02:33PM 39.5339 -86.5036 63° Northeast 405 466 10,400 -1,380 Descending Indianapolis Center
02:34PM 39.5794 -86.3839 64° Northeast 389 448 9,700 -1,080 Descending Indianapolis Center
02:35PM 39.6225 -86.2761 63° Northeast 363 418 8,300 -1,320 Descending Indianapolis Center
02:36PM 39.7028 -86.1739 44° Northeast 342 394 7,100 -1,020 Descending Indianapolis Center
02:37PM 39.7333 -86.1500 31° Northeast 315 362 6,900 -840 Descending Indianapolis TRACON
02:37PM 39.7578 -86.1036 56° Northeast 330 380 6,300 -1,440 Descending Indianapolis Center
02:40PM 39.8333 -86.1500 335° Northwest 151 174 2,800 -1,140 Descending Indianapolis TRACON
02:41PM 39.8000 -86.2000 229° Southwest 167 192 2,700 -420 Descending Indianapolis TRACON
02:42PM 39.7667 -86.2333 218° Southwest 154 177 2,000 -780 Descending Indianapolis TRACON
02:43PM 39.7500 -86.2667 237° Southwest 138 159 1,200 -840 Descending Indianapolis TRACON